Time,TemperatureF,DewpointF,PressureIn,WindDirection,WindDirectionDegrees,WindSpeedMPH,WindSpeedGustMPH,Humidity,HourlyPrecipIn,Conditions,Clouds,dailyrainin,SoftwareType,DateUTC
2013-07-02 00:00:00,69.6,69.6,30.11,SW,222,0.0,0.0,100,0.00,,OVC013,0.13,VWS V14.01,2013-07-02 04:00:00,
2013-07-02 00:01:00,69.6,69.6,30.11,SW,222,0.0,2.0,100,0.00,,OVC013,0.13,VWS V14.01,2013-07-02 04:01:00,
2013-07-02 00:06:00,69.6,69.6,30.11,South,185,8.0,8.0,100,0.00,,OVC013,0.00,VWS V14.01,2013-07-02 04:06:00,
2013-07-02 00:11:00,69.6,69.6,30.11,South,172,0.0,2.0,100,0.00,,OVC013,0.00,VWS V14.01,2013-07-02 04:11:00,
2013-07-02 00:16:00,69.6,69.6,30.11,SSW,193,2.0,4.0,100,0.00,,OVC013,0.00,VWS V14.01,2013-07-02 04:16:00,
2013-07-02 00:21:00,69.4,69.4,30.11,South,190,4.0,7.0,100,0.00,,OVC013,0.00,VWS V14.01,2013-07-02 04:21:00,
2013-07-02 00:26:00,69.4,69.4,30.11,WSW,243,2.0,3.0,100,0.00,,OVC013,0.00,VWS V14.01,2013-07-02 04:26:00,
2013-07-02 00:31:00,69.4,69.4,30.11,SSW,193,3.0,6.0,100,0.00,,OVC013,0.00,VWS V14.01,2013-07-02 04:31:00,
2013-07-02 00:36:00,69.4,69.4,30.11,South,181,3.0,3.0,100,0.00,,OVC013,0.00,VWS V14.01,2013-07-02 04:36:00,
2013-07-02 00:41:00,69.4,69.4,30.12,SSE,160,3.0,4.0,100,0.00,,OVC013,0.00,VWS V14.01,2013-07-02 04:41:00,
2013-07-02 00:46:00,69.4,69.4,30.12,South,177,4.0,5.0,100,0.00,,OVC013,0.00,VWS V14.01,2013-07-02 04:46:00,
2013-07-02 00:51:00,69.4,69.4,30.11,SSW,213,0.0,2.0,100,0.00,,OVC013,0.00,VWS V14.01,2013-07-02 04:51:00,
2013-07-02 00:56:00,69.4,69.4,30.11,South,175,2.0,2.0,100,0.00,,OVC013,0.00,VWS V14.01,2013-07-02 04:56:00,
2013-07-02 01:01:00,69.4,69.4,30.11,SSW,195,0.0,4.0,100,0.00,,OVC013,0.00,VWS V14.01,2013-07-02 05:01:00,
2013-07-02 01:06:00,69.4,69.4,30.11,SSW,195,3.0,4.0,100,0.00,,OVC011,0.00,VWS V14.01,2013-07-02 05:06:00,
2013-07-02 01:11:00,69.4,69.4,30.12,South,176,2.0,2.0,100,0.00,,OVC011,0.00,VWS V14.01,2013-07-02 05:11:00,
2013-07-02 01:16:00,69.4,69.4,30.12,SSW,209,1.0,2.0,100,0.00,,OVC011,0.00,VWS V14.01,2013-07-02 05:16:00,
2013-07-02 01:21:00,69.4,69.4,30.12,SW,232,2.0,5.0,100,0.00,,OVC011,0.00,VWS V14.01,2013-07-02 05:21:00,
2013-07-02 01:26:00,69.4,69.4,30.12,SW,225,1.0,3.0,100,0.00,,OVC011,0.00,VWS V14.01,2013-07-02 05:26:00,
2013-07-02 01:31:00,69.4,69.4,30.12,South,190,3.0,4.0,100,0.00,,OVC011,0.00,VWS V14.01,2013-07-02 05:31:00,
2013-07-02 01:36:00,69.4,69.4,30.12,WSW,256,3.0,4.0,100,0.00,,OVC011,0.00,VWS V14.01,2013-07-02 05:36:00,
2013-07-02 01:41:00,69.4,69.4,30.12,WSW,243,1.0,4.0,100,0.00,,OVC011,0.00,VWS V14.01,2013-07-02 05:41:00,
2013-07-02 01:46:00,69.6,69.6,30.12,SW,217,0.0,4.0,100,0.00,,OVC011,0.00,VWS V14.01,2013-07-02 05:46:00,
2013-07-02 01:51:00,69.6,69.6,30.12,SSE,152,0.0,3.0,100,0.00,,OVC011,0.00,VWS V14.01,2013-07-02 05:51:00,
2013-07-02 01:56:00,69.6,69.6,30.12,SW,230,1.0,4.0,100,0.00,,OVC011,0.00,VWS V14.01,2013-07-02 05:56:00,
2013-07-02 02:01:00,69.6,69.6,30.12,SSW,199,0.0,2.0,100,0.00,,OVC011,0.00,VWS V14.01,2013-07-02 06:01:00,
2013-07-02 02:06:00,69.7,69.7,30.11,SSW,199,3.0,4.0,100,0.00,,OVC007,0.00,VWS V14.01,2013-07-02 06:06:00,
2013-07-02 02:11:00,69.8,69.8,30.12,SSW,201,3.0,5.0,100,0.00,,OVC007,0.00,VWS V14.01,2013-07-02 06:11:00,
2013-07-02 02:16:00,69.8,69.8,30.12,South,190,2.0,4.0,100,0.00,,OVC007,0.00,VWS V14.01,2013-07-02 06:16:00,
2013-07-02 02:21:00,69.8,69.8,30.11,WSW,242,1.0,2.0,100,0.00,,OVC007,0.00,VWS V14.01,2013-07-02 06:21:00,
2013-07-02 02:26:00,69.7,69.7,30.12,South,189,1.0,3.0,100,0.00,,OVC007,0.00,VWS V14.01,2013-07-02 06:26:00,
2013-07-02 02:31:00,69.7,69.7,30.11,South,190,0.0,3.0,100,0.00,,OVC007,0.00,VWS V14.01,2013-07-02 06:31:00,
2013-07-02 02:36:00,69.7,69.7,30.11,South,189,1.0,3.0,100,0.00,,OVC007,0.00,VWS V14.01,2013-07-02 06:36:00,
2013-07-02 02:41:00,69.7,69.7,30.12,South,190,3.0,5.0,100,0.00,,OVC007,0.00,VWS V14.01,2013-07-02 06:41:00,
2013-07-02 02:46:00,69.9,69.9,30.12,South,190,2.0,3.0,100,0.00,,OVC007,0.00,VWS V14.01,2013-07-02 06:46:00,
2013-07-02 02:51:00,69.9,69.9,30.12,South,190,1.0,2.0,100,0.00,,OVC007,0.00,VWS V14.01,2013-07-02 06:51:00,
2013-07-02 02:56:00,69.9,69.9,30.12,SSW,192,2.0,4.0,100,0.00,,OVC007,0.00,VWS V14.01,2013-07-02 06:56:00,
2013-07-02 03:01:00,69.9,69.9,30.12,SW,224,0.0,1.0,100,0.00,,OVC007,0.00,VWS V14.01,2013-07-02 07:01:00,
2013-07-02 03:06:00,70.1,70.1,30.12,South,187,0.0,8.0,100,0.00,,OVC007,0.00,VWS V14.01,2013-07-02 07:06:00,
2013-07-02 03:11:00,70.1,70.1,30.11,West,276,0.0,4.0,100,0.00,,OVC007,0.00,VWS V14.01,2013-07-02 07:11:00,
2013-07-02 03:16:00,70.1,70.1,30.12,WSW,243,1.0,4.0,100,0.00,,OVC007,0.00,VWS V14.01,2013-07-02 07:16:00,
2013-07-02 03:21:00,70.1,70.1,30.12,South,191,1.0,3.0,100,0.00,,OVC007,0.00,VWS V14.01,2013-07-02 07:21:00,
2013-07-02 03:26:00,70.1,70.1,30.12,South,191,3.0,5.0,100,0.00,,OVC007,0.00,VWS V14.01,2013-07-02 07:26:00,
2013-07-02 03:31:00,70.0,70.0,30.12,SSW,209,3.0,6.0,100,0.00,,OVC007,0.00,VWS V14.01,2013-07-02 07:31:00,
2013-07-02 03:36:00,70.1,70.1,30.12,South,178,0.0,5.0,100,0.00,,OVC007,0.00,VWS V14.01,2013-07-02 07:36:00,
2013-07-02 03:41:00,70.1,70.1,30.12,South,183,1.0,10.0,100,0.00,,OVC007,0.00,VWS V14.01,2013-07-02 07:41:00,
2013-07-02 03:46:00,70.1,70.1,30.12,South,183,0.0,3.0,100,0.00,,OVC007,0.00,VWS V14.01,2013-07-02 07:46:00,
2013-07-02 03:51:00,70.1,70.1,30.12,South,185,3.0,3.0,100,0.00,,OVC007,0.00,VWS V14.01,2013-07-02 07:51:00,
2013-07-02 03:56:00,70.1,70.1,30.12,South,185,5.0,5.0,100,0.00,,OVC007,0.00,VWS V14.01,2013-07-02 07:56:00,
2013-07-02 04:01:00,70.1,70.1,30.12,SW,230,0.0,3.0,100,0.00,,OVC007,0.00,VWS V14.01,2013-07-02 08:01:00,
2013-07-02 04:06:00,70.1,70.1,30.12,SSW,202,3.0,7.0,100,0.00,,OVC019,0.00,VWS V14.01,2013-07-02 08:06:00,
2013-07-02 04:11:00,70.1,70.1,30.12,WSW,237,5.0,5.0,100,0.00,,OVC019,0.00,VWS V14.01,2013-07-02 08:11:00,
2013-07-02 04:16:00,70.1,70.1,30.12,SSE,155,2.0,2.0,100,0.00,,OVC019,0.00,VWS V14.01,2013-07-02 08:16:00,
2013-07-02 04:21:00,70.1,70.1,30.12,SW,226,3.0,7.0,100,0.00,,OVC019,0.00,VWS V14.01,2013-07-02 08:21:00,
2013-07-02 04:26:00,70.1,70.1,30.12,SSE,162,3.0,4.0,100,0.00,,OVC019,0.00,VWS V14.01,2013-07-02 08:26:00,
2013-07-02 04:31:00,70.0,70.0,30.12,SSE,157,0.0,5.0,100,0.00,,OVC019,0.00,VWS V14.01,2013-07-02 08:31:00,
2013-07-02 04:36:00,69.9,69.9,30.12,SSW,192,4.0,4.0,100,0.00,,OVC019,0.00,VWS V14.01,2013-07-02 08:36:00,
2013-07-02 04:41:00,69.9,69.9,30.12,SSW,196,1.0,5.0,100,0.00,,OVC019,0.00,VWS V14.01,2013-07-02 08:41:00,
2013-07-02 04:46:00,69.9,69.9,30.12,SW,221,1.0,4.0,100,0.00,,OVC019,0.00,VWS V14.01,2013-07-02 08:46:00,
2013-07-02 04:51:00,69.9,69.9,30.12,SSW,206,0.0,4.0,100,0.00,,OVC019,0.00,VWS V14.01,2013-07-02 08:51:00,
2013-07-02 04:56:00,69.8,69.8,30.13,SSW,205,2.0,6.0,100,0.00,,OVC019,0.00,VWS V14.01,2013-07-02 08:56:00,
2013-07-02 05:01:00,69.8,69.8,30.13,SSW,205,0.0,2.0,100,0.00,,OVC019,0.00,VWS V14.01,2013-07-02 09:01:00,
2013-07-02 05:06:00,69.8,69.8,30.13,South,171,2.0,3.0,100,0.00,,OVC014,0.00,VWS V14.01,2013-07-02 09:06:00,
2013-07-02 05:11:00,69.8,69.8,30.13,South,172,1.0,3.0,100,0.00,,OVC014,0.00,VWS V14.01,2013-07-02 09:11:00,
2013-07-02 05:16:00,69.8,69.8,30.13,South,172,1.0,3.0,100,0.00,,OVC014,0.00,VWS V14.01,2013-07-02 09:16:00,
2013-07-02 05:21:00,69.8,69.8,30.13,WNW,289,0.0,5.0,100,0.00,,OVC014,0.00,VWS V14.01,2013-07-02 09:21:00,
2013-07-02 05:26:00,69.7,69.7,30.13,SW,216,2.0,3.0,100,0.00,,OVC014,0.00,VWS V14.01,2013-07-02 09:26:00,
2013-07-02 05:31:00,69.7,69.7,30.14,SSE,166,2.0,6.0,100,0.00,,OVC014,0.00,VWS V14.01,2013-07-02 09:31:00,
2013-07-02 05:36:00,69.8,69.8,30.13,WSW,242,1.0,2.0,100,0.00,,OVC014,0.00,VWS V14.01,2013-07-02 09:36:00,
2013-07-02 05:41:00,69.7,69.7,30.14,SSW,195,2.0,6.0,100,0.00,,OVC014,0.00,VWS V14.01,2013-07-02 09:41:00,
2013-07-02 05:46:00,69.7,69.7,30.14,SSW,212,0.0,5.0,100,0.00,,OVC014,0.00,VWS V14.01,2013-07-02 09:46:00,
2013-07-02 05:51:00,69.8,69.8,30.14,SSW,207,1.0,5.0,100,0.00,,OVC014,0.00,VWS V14.01,2013-07-02 09:51:00,
2013-07-02 05:56:00,69.8,69.8,30.14,SSW,200,3.0,4.0,100,0.00,,OVC014,0.00,VWS V14.01,2013-07-02 09:56:00,
2013-07-02 06:01:00,69.7,69.7,30.14,South,184,0.0,2.0,100,0.02,,OVC014,0.02,VWS V14.01,2013-07-02 10:01:00,
2013-07-02 06:06:00,69.8,69.8,30.15,South,181,3.0,6.0,100,0.02,,-RA,0.02,VWS V14.01,2013-07-02 10:06:00,
2013-07-02 06:11:00,69.8,69.8,30.14,South,175,1.0,2.0,100,0.02,,-RA,0.02,VWS V14.01,2013-07-02 10:11:00,
2013-07-02 06:16:00,69.7,69.7,30.15,South,176,1.0,5.0,100,0.02,,-RA,0.02,VWS V14.01,2013-07-02 10:16:00,
2013-07-02 06:21:00,69.8,69.8,30.14,SSW,197,2.0,5.0,100,0.02,,-RA,0.02,VWS V14.01,2013-07-02 10:21:00,
2013-07-02 06:26:00,69.7,69.7,30.15,South,180,2.0,5.0,100,0.02,,-RA,0.02,VWS V14.01,2013-07-02 10:26:00,
2013-07-02 06:31:00,69.8,69.8,30.14,South,178,2.0,3.0,100,0.02,,-RA,0.02,VWS V14.01,2013-07-02 10:31:00,
2013-07-02 06:36:00,69.8,69.8,30.14,WSW,244,1.0,4.0,100,0.02,,-RA,0.02,VWS V14.01,2013-07-02 10:36:00,
2013-07-02 06:41:00,69.7,69.7,30.15,SW,232,1.0,6.0,100,0.02,,-RA,0.02,VWS V14.01,2013-07-02 10:41:00,
2013-07-02 06:46:00,69.8,69.8,30.15,SW,226,3.0,4.0,100,0.02,,-RA,0.02,VWS V14.01,2013-07-02 10:46:00,
2013-07-02 06:51:00,69.7,69.7,30.15,WSW,240,4.0,7.0,100,0.02,,-RA,0.02,VWS V14.01,2013-07-02 10:51:00,
2013-07-02 06:56:00,69.7,69.7,30.15,SW,228,0.0,1.0,100,0.02,,-RA,0.02,VWS V14.01,2013-07-02 10:56:00,
2013-07-02 07:01:00,69.7,69.7,30.15,SW,222,3.0,5.0,100,0.02,,-RA,0.02,VWS V14.01,2013-07-02 11:01:00,
2013-07-02 07:06:00,69.6,69.6,30.15,SSW,199,3.0,4.0,100,0.00,,,0.02,VWS V14.01,2013-07-02 11:06:00,
2013-07-02 07:11:00,69.8,69.8,30.15,SW,235,3.0,5.0,100,0.00,,,0.02,VWS V14.01,2013-07-02 11:11:00,
2013-07-02 07:16:00,69.6,69.6,30.15,South,189,1.0,6.0,100,0.00,,,0.02,VWS V14.01,2013-07-02 11:16:00,
2013-07-02 07:21:00,69.6,69.6,30.15,SSW,201,0.0,4.0,100,0.00,,,0.02,VWS V14.01,2013-07-02 11:21:00,
2013-07-02 07:26:00,69.8,69.8,30.15,SSW,202,2.0,3.0,100,0.00,,,0.02,VWS V14.01,2013-07-02 11:26:00,
2013-07-02 07:31:00,69.8,69.8,30.16,SSW,202,0.0,5.0,100,0.00,,,0.02,VWS V14.01,2013-07-02 11:31:00,
2013-07-02 07:36:00,69.6,69.6,30.16,South,188,0.0,5.0,100,0.00,,,0.02,VWS V14.01,2013-07-02 11:36:00,
2013-07-02 07:41:00,69.6,69.6,30.16,West,259,8.0,9.0,100,0.00,,,0.02,VWS V14.01,2013-07-02 11:41:00,
2013-07-02 07:46:00,69.6,69.6,30.16,SSW,194,5.0,7.0,100,0.00,,,0.02,VWS V14.01,2013-07-02 11:46:00,
2013-07-02 07:51:00,69.7,69.7,30.16,South,178,1.0,5.0,100,0.00,,,0.02,VWS V14.01,2013-07-02 11:51:00,
2013-07-02 07:56:00,69.7,69.7,30.16,SW,215,1.0,4.0,100,0.00,,,0.02,VWS V14.01,2013-07-02 11:56:00,
2013-07-02 08:01:00,69.7,69.7,30.16,SW,217,1.0,5.0,100,0.00,,,0.02,VWS V14.01,2013-07-02 12:01:00,
2013-07-02 08:06:00,69.8,69.8,30.16,SSW,210,0.0,1.0,100,0.00,,OVC009,0.02,VWS V14.01,2013-07-02 12:06:00,
2013-07-02 08:11:00,69.8,69.8,30.16,ESE,111,0.0,3.0,100,0.00,,OVC009,0.02,VWS V14.01,2013-07-02 12:11:00,
2013-07-02 08:16:00,69.7,69.7,30.16,WSW,245,1.0,7.0,100,0.00,,OVC009,0.02,VWS V14.01,2013-07-02 12:16:00,
2013-07-02 08:21:00,69.9,69.9,30.16,WSW,245,0.0,2.0,100,0.00,,OVC009,0.02,VWS V14.01,2013-07-02 12:21:00,
2013-07-02 08:26:00,69.9,69.9,30.17,South,189,4.0,4.0,100,0.00,,OVC009,0.02,VWS V14.01,2013-07-02 12:26:00,
2013-07-02 08:31:00,69.9,69.9,30.17,SW,233,1.0,6.0,100,0.00,,OVC009,0.02,VWS V14.01,2013-07-02 12:31:00,
2013-07-02 08:36:00,70.1,70.1,30.17,SE,145,1.0,3.0,100,0.00,,OVC009,0.02,VWS V14.01,2013-07-02 12:36:00,
2013-07-02 08:41:00,70.1,70.1,30.17,South,177,5.0,5.0,100,0.00,,OVC009,0.02,VWS V14.01,2013-07-02 12:41:00,
2013-07-02 08:46:00,70.1,70.1,30.17,SSE,159,3.0,4.0,100,0.00,,OVC009,0.02,VWS V14.01,2013-07-02 12:46:00,
2013-07-02 08:51:00,70.1,70.1,30.18,SSW,206,2.0,4.0,100,0.00,,OVC009,0.02,VWS V14.01,2013-07-02 12:51:00,
2013-07-02 08:56:00,70.3,70.3,30.18,SW,216,1.0,3.0,100,0.00,,OVC009,0.02,VWS V14.01,2013-07-02 12:56:00,
2013-07-02 09:01:00,70.1,70.1,30.17,SSW,204,2.0,6.0,100,0.00,,OVC009,0.02,VWS V14.01,2013-07-02 13:01:00,
2013-07-02 09:06:00,70.1,70.1,30.17,SSE,167,1.0,8.0,100,0.00,,OVC009,0.02,VWS V14.01,2013-07-02 13:06:00,
2013-07-02 09:11:00,70.1,70.1,30.17,SW,220,0.0,4.0,100,0.00,,OVC009,0.02,VWS V14.01,2013-07-02 13:11:00,
2013-07-02 09:16:00,70.3,70.3,30.17,ESE,122,3.0,5.0,100,0.00,,OVC009,0.02,VWS V14.01,2013-07-02 13:16:00,
2013-07-02 09:21:00,70.2,70.2,30.17,South,178,3.0,5.0,100,0.00,,OVC009,0.02,VWS V14.01,2013-07-02 13:21:00,
2013-07-02 09:26:00,70.2,70.2,30.17,SW,226,0.0,4.0,100,0.00,,OVC009,0.02,VWS V14.01,2013-07-02 13:26:00,
2013-07-02 09:31:00,70.2,70.2,30.17,SW,222,1.0,5.0,100,0.00,,OVC009,0.02,VWS V14.01,2013-07-02 13:31:00,
2013-07-02 09:36:00,70.7,70.7,30.18,SW,234,4.0,4.0,100,0.00,,OVC009,0.02,VWS V14.01,2013-07-02 13:36:00,
2013-07-02 09:41:00,70.3,70.3,30.17,SW,216,3.0,6.0,100,0.00,,OVC009,0.02,VWS V14.01,2013-07-02 13:41:00,
2013-07-02 09:46:00,70.2,70.2,30.17,SW,227,3.0,8.0,100,0.00,,OVC009,0.02,VWS V14.01,2013-07-02 13:46:00,
2013-07-02 09:51:00,70.3,70.3,30.17,SW,229,3.0,6.0,100,0.00,,OVC009,0.02,VWS V14.01,2013-07-02 13:51:00,
2013-07-02 09:56:00,70.4,70.4,30.18,South,191,3.0,6.0,100,0.00,,OVC009,0.02,VWS V14.01,2013-07-02 13:56:00,
2013-07-02 10:01:00,70.2,70.2,30.17,SW,218,2.0,8.0,100,0.00,,OVC009,0.02,VWS V14.01,2013-07-02 14:01:00,
2013-07-02 10:06:00,70.4,70.4,30.17,SSW,208,4.0,5.0,100,0.00,,BKN009,0.02,VWS V14.01,2013-07-02 14:06:00,
2013-07-02 10:11:00,70.4,70.4,30.17,South,177,0.0,3.0,100,0.00,,BKN009,0.02,VWS V14.01,2013-07-02 14:11:00,
2013-07-02 10:16:00,70.4,70.4,30.17,SSE,168,1.0,5.0,100,0.00,,BKN009,0.02,VWS V14.01,2013-07-02 14:16:00,
2013-07-02 10:21:00,70.6,70.6,30.17,SSW,204,2.0,3.0,100,0.00,,BKN009,0.02,VWS V14.01,2013-07-02 14:21:00,
2013-07-02 10:26:00,70.6,70.6,30.18,South,184,0.0,3.0,100,0.00,,BKN009,0.02,VWS V14.01,2013-07-02 14:26:00,
2013-07-02 10:31:00,70.7,70.7,30.17,South,185,3.0,4.0,100,0.00,,BKN009,0.02,VWS V14.01,2013-07-02 14:31:00,
2013-07-02 10:35:00,70.7,70.7,30.18,SE,140,2.0,5.0,100,0.00,,BKN009,0.02,VWS V14.01,2013-07-02 14:35:00,
2013-07-02 11:17:00,71.2,71.2,30.19,SSW,203,0.0,4.0,100,0.00,,BKN009,0.02,VWS V14.01,2013-07-02 15:17:00,
2013-07-02 11:22:00,71.3,71.3,30.18,SE,129,1.0,4.0,100,0.00,,BKN009,0.02,VWS V14.01,2013-07-02 15:22:00,
2013-07-02 11:27:00,71.6,71.6,30.18,SW,230,3.0,5.0,100,0.00,,BKN009,0.02,VWS V14.01,2013-07-02 15:27:00,
2013-07-02 11:32:00,71.8,71.8,30.19,SSW,195,3.0,4.0,100,0.00,,BKN009,0.02,VWS V14.01,2013-07-02 15:32:00,
2013-07-02 11:37:00,72.2,72.2,30.19,South,187,4.0,5.0,100,0.00,,BKN009,0.02,VWS V14.01,2013-07-02 15:37:00,
2013-07-02 11:42:00,71.9,71.9,30.19,SE,133,3.0,9.0,100,0.00,,BKN009,0.02,VWS V14.01,2013-07-02 15:42:00,
2013-07-02 11:47:00,72.2,72.2,30.19,SSW,199,4.0,6.0,100,0.00,,BKN009,0.02,VWS V14.01,2013-07-02 15:47:00,
2013-07-02 11:52:00,72.0,72.0,30.18,SSE,157,1.0,3.0,100,0.00,,BKN009,0.02,VWS V14.01,2013-07-02 15:52:00,
2013-07-02 11:57:00,71.6,71.6,30.19,SSW,193,1.0,4.0,100,0.00,,BKN009,0.02,VWS V14.01,2013-07-02 15:57:00,
2013-07-02 12:02:00,71.6,71.6,30.19,SW,217,4.0,5.0,100,0.00,,BKN009,0.02,VWS V14.01,2013-07-02 16:02:00,
2013-07-02 12:14:00,71.4,71.4,30.19,SSW,206,3.0,3.0,100,0.00,,BKN120,0.02,VWS V14.01,2013-07-02 16:14:00,
2013-07-02 12:19:00,71.7,71.7,30.20,SSW,210,0.0,3.0,100,0.00,,BKN120,0.02,VWS V14.01,2013-07-02 16:19:00,
2013-07-02 12:24:00,71.4,71.4,30.20,SSE,154,2.0,6.0,100,0.00,,BKN120,0.02,VWS V14.01,2013-07-02 16:24:00,
2013-07-02 12:29:00,71.6,71.6,30.19,SW,219,2.0,5.0,100,0.00,,BKN120,0.02,VWS V14.01,2013-07-02 16:29:00,
2013-07-02 12:34:00,72.2,72.2,30.19,SSW,197,5.0,5.0,100,0.00,,BKN120,0.02,VWS V14.01,2013-07-02 16:34:00,
2013-07-02 12:39:00,72.1,72.1,30.19,SW,215,3.0,5.0,100,0.00,,BKN120,0.02,VWS V14.01,2013-07-02 16:39:00,
2013-07-02 12:44:00,72.4,72.4,30.19,South,187,0.0,3.0,100,0.00,,BKN120,0.02,VWS V14.01,2013-07-02 16:44:00,
2013-07-02 12:49:00,72.6,72.6,30.19,SSE,162,4.0,8.0,100,0.00,,BKN120,0.02,VWS V14.01,2013-07-02 16:49:00,
2013-07-02 12:54:00,72.9,72.9,30.19,SW,225,3.0,6.0,100,0.00,,BKN120,0.02,VWS V14.01,2013-07-02 16:54:00,
2013-07-02 12:59:00,73.3,73.3,30.19,SW,226,5.0,5.0,100,0.00,,BKN120,0.02,VWS V14.01,2013-07-02 16:59:00,
2013-07-02 13:04:00,73.4,72.8,30.19,SW,217,4.0,11.0,98,0.00,,OVC110,0.02,VWS V14.01,2013-07-02 17:04:00,
2013-07-02 13:09:00,73.4,72.5,30.19,SSW,213,7.0,13.0,97,0.00,,OVC110,0.02,VWS V14.01,2013-07-02 17:09:00,
2013-07-02 13:14:00,73.4,72.5,30.19,SSW,207,6.0,6.0,97,0.00,,OVC110,0.02,VWS V14.01,2013-07-02 17:14:00,
2013-07-02 13:19:00,73.4,72.5,30.19,SSE,166,4.0,6.0,97,0.00,,OVC110,0.02,VWS V14.01,2013-07-02 17:19:00,
2013-07-02 13:24:00,73.3,72.1,30.19,SSW,194,1.0,3.0,96,0.00,,OVC110,0.02,VWS V14.01,2013-07-02 17:24:00,
2013-07-02 13:29:00,73.3,72.1,30.19,SSE,163,4.0,5.0,96,0.00,,OVC110,0.02,VWS V14.01,2013-07-02 17:29:00,
2013-07-02 13:34:00,73.3,71.8,30.18,SSW,197,3.0,6.0,95,0.00,,OVC110,0.02,VWS V14.01,2013-07-02 17:34:00,
2013-07-02 13:39:00,73.3,72.1,30.18,SW,219,0.0,6.0,96,0.00,,OVC110,0.02,VWS V14.01,2013-07-02 17:39:00,
2013-07-02 13:44:00,73.3,71.8,30.18,SW,225,1.0,6.0,95,0.00,,OVC110,0.02,VWS V14.01,2013-07-02 17:44:00,
2013-07-02 13:49:00,73.3,71.8,30.18,SSW,192,4.0,7.0,95,0.00,,OVC110,0.02,VWS V14.01,2013-07-02 17:49:00,
2013-07-02 13:54:00,73.3,71.8,30.18,SE,125,1.0,6.0,95,0.00,,OVC110,0.02,VWS V14.01,2013-07-02 17:54:00,
2013-07-02 13:59:00,73.4,71.9,30.18,SSW,192,3.0,7.0,95,0.00,,OVC110,0.02,VWS V14.01,2013-07-02 17:59:00,
2013-07-02 14:04:00,73.6,72.1,30.18,WNW,288,2.0,10.0,95,0.00,,OVC110,0.02,VWS V14.01,2013-07-02 18:04:00,
2013-07-02 14:09:00,73.8,72.0,30.17,SSW,206,5.0,6.0,94,0.00,,OVC100,0.02,VWS V14.01,2013-07-02 18:09:00,
2013-07-02 14:14:00,74.0,72.2,30.17,SW,214,2.0,3.0,94,0.00,,OVC100,0.02,VWS V14.01,2013-07-02 18:14:00,
2013-07-02 14:19:00,74.0,72.2,30.17,SSW,196,0.0,5.0,94,0.00,,OVC100,0.02,VWS V14.01,2013-07-02 18:19:00,
2013-07-02 14:24:00,74.1,72.3,30.17,SSE,163,0.0,5.0,94,0.00,,OVC100,0.02,VWS V14.01,2013-07-02 18:24:00,
2013-07-02 14:29:00,74.1,72.3,30.17,SSW,211,1.0,6.0,94,0.00,,OVC100,0.02,VWS V14.01,2013-07-02 18:29:00,
2013-07-02 14:34:00,74.1,72.3,30.17,SSW,210,1.0,5.0,94,0.00,,OVC100,0.02,VWS V14.01,2013-07-02 18:34:00,
2013-07-02 14:39:00,74.1,72.3,30.17,SSW,196,2.0,3.0,94,0.00,,OVC100,0.02,VWS V14.01,2013-07-02 18:39:00,
2013-07-02 14:44:00,74.1,71.9,30.17,SSW,197,3.0,8.0,93,0.00,,OVC100,0.02,VWS V14.01,2013-07-02 18:44:00,
2013-07-02 14:49:00,73.9,72.1,30.17,SSE,164,4.0,7.0,94,0.00,,OVC100,0.02,VWS V14.01,2013-07-02 18:49:00,
2013-07-02 14:54:00,73.9,72.1,30.16,SSW,203,4.0,5.0,94,0.00,,OVC100,0.02,VWS V14.01,2013-07-02 18:54:00,
2013-07-02 14:59:00,74.4,72.6,30.17,SSW,208,4.0,8.0,94,0.00,,OVC100,0.02,VWS V14.01,2013-07-02 18:59:00,
2013-07-02 15:04:00,74.4,72.6,30.17,SSW,210,2.0,3.0,94,0.00,,BKN110,0.02,VWS V14.01,2013-07-02 19:04:00,
2013-07-02 15:09:00,74.8,72.6,30.16,SSE,166,1.0,6.0,93,0.00,,BKN110,0.02,VWS V14.01,2013-07-02 19:09:00,
2013-07-02 15:14:00,75.1,72.6,30.16,West,271,1.0,5.0,92,0.00,,BKN110,0.02,VWS V14.01,2013-07-02 19:14:00,
2013-07-02 15:19:00,75.3,72.8,30.17,SSW,208,3.0,4.0,92,0.00,,BKN110,0.02,VWS V14.01,2013-07-02 19:19:00,
2013-07-02 15:24:00,75.3,72.8,30.17,SW,233,1.0,6.0,92,0.00,,BKN110,0.02,VWS V14.01,2013-07-02 19:24:00,
2013-07-02 15:29:00,75.1,72.3,30.16,South,180,7.0,10.0,91,0.00,,BKN110,0.02,VWS V14.01,2013-07-02 19:29:00,
2013-07-02 15:34:00,75.2,72.4,30.16,South,178,5.0,6.0,91,0.00,,BKN110,0.02,VWS V14.01,2013-07-02 19:34:00,
2013-07-02 15:39:00,74.9,72.1,30.16,SSE,164,5.0,5.0,91,0.00,,BKN110,0.02,VWS V14.01,2013-07-02 19:39:00,
2013-07-02 15:44:00,75.1,72.3,30.16,South,172,2.0,5.0,91,0.00,,BKN110,0.02,VWS V14.01,2013-07-02 19:44:00,
2013-07-02 15:49:00,75.4,72.6,30.16,SW,215,0.0,0.0,91,0.00,,BKN110,0.02,VWS V14.01,2013-07-02 19:49:00,
2013-07-02 15:54:00,75.1,72.0,30.16,South,191,4.0,4.0,90,0.00,,BKN110,0.02,VWS V14.01,2013-07-02 19:54:00,
2013-07-02 15:59:00,75.0,72.2,30.16,SSW,201,7.0,9.0,91,0.00,,BKN110,0.02,VWS V14.01,2013-07-02 19:59:00,
2013-07-02 16:04:00,75.1,72.3,30.16,SSW,212,3.0,6.0,91,0.00,,BKN150,0.02,VWS V14.01,2013-07-02 20:04:00,
2013-07-02 16:09:00,75.0,72.2,30.16,SW,225,0.0,7.0,91,0.00,,BKN150,0.02,VWS V14.01,2013-07-02 20:09:00,
2013-07-02 16:14:00,75.0,71.9,30.16,SSW,195,3.0,9.0,90,0.00,,BKN150,0.02,VWS V14.01,2013-07-02 20:14:00,
2013-07-02 16:19:00,75.2,72.4,30.16,SW,236,0.0,5.0,91,0.00,,BKN150,0.02,VWS V14.01,2013-07-02 20:19:00,
2013-07-02 16:24:00,75.0,72.2,30.16,SE,125,4.0,8.0,91,0.00,,BKN150,0.02,VWS V14.01,2013-07-02 20:24:00,
2013-07-02 16:29:00,74.8,72.0,30.16,South,184,3.0,3.0,91,0.00,,BKN150,0.02,VWS V14.01,2013-07-02 20:29:00,
2013-07-02 16:34:00,75.0,72.2,30.16,SSW,201,1.0,3.0,91,0.00,,BKN150,0.02,VWS V14.01,2013-07-02 20:34:00,
2013-07-02 16:39:00,75.3,71.8,30.16,WSW,246,3.0,6.0,89,0.00,,BKN150,0.02,VWS V14.01,2013-07-02 20:39:00,
2013-07-02 16:44:00,75.5,72.0,30.16,SSW,194,1.0,5.0,89,0.00,,BKN150,0.02,VWS V14.01,2013-07-02 20:44:00,
2013-07-02 16:49:00,75.5,72.0,30.16,SW,225,7.0,8.0,89,0.00,,BKN150,0.02,VWS V14.01,2013-07-02 20:49:00,
2013-07-02 16:54:00,75.1,71.3,30.15,SSE,150,5.0,7.0,88,0.00,,BKN150,0.02,VWS V14.01,2013-07-02 20:54:00,
2013-07-02 16:59:00,75.1,72.0,30.15,SSE,163,4.0,4.0,90,0.00,,BKN150,0.02,VWS V14.01,2013-07-02 20:59:00,
2013-07-02 17:04:00,75.9,72.4,30.15,SSW,208,1.0,2.0,89,0.00,,SCT150,0.02,VWS V14.01,2013-07-02 21:04:00,
2013-07-02 17:09:00,75.8,72.0,30.15,West,268,1.0,8.0,88,0.00,,SCT150,0.02,VWS V14.01,2013-07-02 21:09:00,
2013-07-02 17:14:00,75.1,71.3,30.15,WSW,243,7.0,7.0,88,0.00,,SCT150,0.02,VWS V14.01,2013-07-02 21:14:00,
2013-07-02 17:19:00,74.9,71.1,30.15,SSE,157,1.0,3.0,88,0.00,,SCT150,0.02,VWS V14.01,2013-07-02 21:19:00,
2013-07-02 17:24:00,75.1,71.6,30.15,SSE,166,4.0,5.0,89,0.00,,SCT150,0.02,VWS V14.01,2013-07-02 21:24:00,
2013-07-02 17:29:00,75.3,71.5,30.15,WSW,252,5.0,6.0,88,0.00,,SCT150,0.02,VWS V14.01,2013-07-02 21:29:00,
2013-07-02 17:34:00,75.3,71.8,30.15,SSW,200,5.0,5.0,89,0.00,,SCT150,0.02,VWS V14.01,2013-07-02 21:34:00,
2013-07-02 17:39:00,75.7,71.9,30.16,SW,215,1.0,9.0,88,0.00,,SCT150,0.02,VWS V14.01,2013-07-02 21:39:00,
2013-07-02 17:44:00,75.8,71.3,30.16,WSW,244,4.0,4.0,86,0.00,,SCT150,0.02,VWS V14.01,2013-07-02 21:44:00,
2013-07-02 17:49:00,76.0,71.5,30.16,SW,229,1.0,7.0,86,0.00,,SCT150,0.02,VWS V14.01,2013-07-02 21:49:00,
2013-07-02 17:54:00,76.2,71.7,30.16,ESE,121,0.0,6.0,86,0.00,,SCT150,0.02,VWS V14.01,2013-07-02 21:54:00,
2013-07-02 17:59:00,76.2,72.1,30.16,South,185,1.0,6.0,87,0.00,,SCT150,0.02,VWS V14.01,2013-07-02 21:59:00,
2013-07-02 18:04:00,76.0,71.9,30.17,SW,228,8.0,8.0,87,0.00,,SCT150,0.02,VWS V14.01,2013-07-02 22:04:00,
2013-07-02 18:09:00,75.3,71.5,30.16,South,183,1.0,5.0,88,0.00,,SCT150,0.02,VWS V14.01,2013-07-02 22:09:00,
2013-07-02 18:14:00,74.8,71.3,30.17,SW,223,4.0,4.0,89,0.00,,SCT150,0.02,VWS V14.01,2013-07-02 22:14:00,
2013-07-02 18:19:00,74.8,71.3,30.17,South,175,5.0,7.0,89,0.00,,SCT150,0.02,VWS V14.01,2013-07-02 22:19:00,
2013-07-02 18:24:00,74.8,71.3,30.17,SSW,192,5.0,5.0,89,0.00,,SCT150,0.02,VWS V14.01,2013-07-02 22:24:00,
2013-07-02 18:29:00,74.3,70.8,30.18,East,91,0.0,6.0,89,0.00,,SCT150,0.02,VWS V14.01,2013-07-02 22:29:00,
2013-07-02 18:34:00,73.8,70.7,30.18,South,169,5.0,7.0,90,0.00,,SCT150,0.02,VWS V14.01,2013-07-02 22:34:00,
2013-07-02 18:39:00,73.3,70.5,30.18,SSW,198,4.0,6.0,91,0.00,,SCT150,0.02,VWS V14.01,2013-07-02 22:39:00,
2013-07-02 18:44:00,73.1,70.6,30.18,SW,236,3.0,8.0,92,0.00,,SCT150,0.02,VWS V14.01,2013-07-02 22:44:00,
2013-07-02 18:49:00,73.0,70.5,30.18,SE,143,2.0,2.0,92,0.00,,SCT150,0.02,VWS V14.01,2013-07-02 22:49:00,
2013-07-02 18:54:00,73.0,70.5,30.18,SSW,195,5.0,9.0,92,0.00,,SCT150,0.02,VWS V14.01,2013-07-02 22:54:00,
2013-07-02 18:59:00,72.4,69.9,30.18,SSE,166,6.0,7.0,92,0.00,,SCT150,0.02,VWS V14.01,2013-07-02 22:59:00,
2013-07-02 19:04:00,72.3,70.2,30.19,WNW,289,1.0,5.0,93,0.00,,SCT150,0.02,VWS V14.01,2013-07-02 23:04:00,
2013-07-02 19:09:00,72.1,70.3,30.19,SE,125,0.0,3.0,94,0.00,,BKN100,0.02,VWS V14.01,2013-07-02 23:09:00,
2013-07-02 19:14:00,71.9,70.1,30.18,South,179,2.0,6.0,94,0.00,,BKN100,0.02,VWS V14.01,2013-07-02 23:14:00,
2013-07-02 19:19:00,71.8,70.0,30.19,South,183,5.0,6.0,94,0.00,,BKN100,0.02,VWS V14.01,2013-07-02 23:19:00,
2013-07-02 19:24:00,71.6,69.8,30.18,South,169,4.0,6.0,94,0.00,,BKN100,0.02,VWS V14.01,2013-07-02 23:24:00,
2013-07-02 19:29:00,71.6,70.1,30.19,SSW,211,5.0,7.0,95,0.00,,BKN100,0.02,VWS V14.01,2013-07-02 23:29:00,
2013-07-02 19:34:00,71.8,70.3,30.19,SSW,205,1.0,7.0,95,0.00,,BKN100,0.02,VWS V14.01,2013-07-02 23:34:00,
2013-07-02 19:39:00,71.2,69.7,30.19,SW,216,0.0,5.0,95,0.00,,BKN100,0.02,VWS V14.01,2013-07-02 23:39:00,
2013-07-02 19:44:00,71.2,70.0,30.19,South,170,0.0,4.0,96,0.00,,BKN100,0.02,VWS V14.01,2013-07-02 23:44:00,
2013-07-02 19:49:00,71.1,69.9,30.19,SSE,149,0.0,4.0,96,0.00,,BKN100,0.02,VWS V14.01,2013-07-02 23:49:00,
2013-07-02 19:54:00,71.4,70.2,30.19,SSW,203,1.0,3.0,96,0.00,,BKN100,0.02,VWS V14.01,2013-07-02 23:54:00,
2013-07-02 19:59:00,70.9,70.0,30.19,SSE,160,2.0,2.0,97,0.00,,BKN100,0.02,VWS V14.01,2013-07-02 23:59:00,
2013-07-02 20:01:00,70.9,70.0,30.19,SSW,209,0.0,5.0,97,0.00,,BKN100,0.02,VWS V14.01,2013-07-03 00:01:00,
2013-07-02 20:06:00,70.7,69.8,30.19,South,176,2.0,8.0,97,0.00,,OVC100,0.02,VWS V14.01,2013-07-03 00:06:00,
2013-07-02 20:11:00,71.0,70.1,30.18,South,176,1.0,4.0,97,0.00,,OVC100,0.02,VWS V14.01,2013-07-03 00:11:00,
2013-07-02 20:16:00,70.7,69.8,30.19,South,178,2.0,2.0,97,0.00,,OVC100,0.02,VWS V14.01,2013-07-03 00:16:00,
2013-07-02 20:21:00,70.6,69.4,30.19,SSW,211,2.0,4.0,96,0.00,,OVC100,0.02,VWS V14.01,2013-07-03 00:21:00,
2013-07-02 20:23:00,70.6,69.7,30.19,South,169,0.0,3.0,97,0.00,,OVC100,0.02,VWS V14.01,2013-07-03 00:23:00,
2013-07-02 20:24:00,70.6,70.0,30.19,SSE,168,0.0,0.0,98,0.00,,OVC100,0.02,VWS V14.01,2013-07-03 00:24:00,
2013-07-02 20:28:00,70.6,69.7,30.19,SW,230,2.0,3.0,97,0.00,,OVC100,0.02,VWS V14.01,2013-07-03 00:28:00,
2013-07-02 20:33:00,70.6,69.7,30.19,SSW,195,0.0,3.0,97,0.00,,OVC100,0.02,VWS V14.01,2013-07-03 00:33:00,
2013-07-02 20:38:00,70.3,69.7,30.19,SW,216,0.0,3.0,98,0.00,,OVC100,0.02,VWS V14.01,2013-07-03 00:38:00,
2013-07-02 20:43:00,70.3,69.7,30.19,South,178,0.0,2.0,98,0.00,,OVC100,0.02,VWS V14.01,2013-07-03 00:43:00,
2013-07-02 20:48:00,70.4,69.8,30.20,South,172,0.0,2.0,98,0.00,,OVC100,0.02,VWS V14.01,2013-07-03 00:48:00,
2013-07-02 20:53:00,70.3,69.7,30.20,SW,226,0.0,3.0,98,0.00,,OVC100,0.02,VWS V14.01,2013-07-03 00:53:00,
2013-07-02 20:58:00,70.6,70.0,30.20,SSW,199,0.0,1.0,98,0.00,,OVC100,0.02,VWS V14.01,2013-07-03 00:58:00,
2013-07-02 21:00:00,70.4,69.8,30.20,SSW,193,1.0,2.0,98,0.00,,OVC100,0.02,VWS V14.01,2013-07-03 01:00:00,
2013-07-02 21:03:00,70.4,69.8,30.20,WSW,244,1.0,4.0,98,0.00,,OVC100,0.02,VWS V14.01,2013-07-03 01:03:00,
2013-07-02 21:08:00,70.4,69.8,30.20,SSW,208,3.0,5.0,98,0.00,,BKN014,0.02,VWS V14.01,2013-07-03 01:08:00,
2013-07-02 21:09:00,70.4,69.8,30.20,SSW,208,1.0,3.0,98,0.00,,BKN014,0.02,VWS V14.01,2013-07-03 01:09:00,
2013-07-02 21:14:00,70.7,70.1,30.20,SSW,195,0.0,2.0,98,0.00,,BKN014,0.02,VWS V14.01,2013-07-03 01:14:00,
2013-07-02 21:19:00,70.4,69.8,30.20,South,185,0.0,3.0,98,0.00,,BKN014,0.02,VWS V14.01,2013-07-03 01:19:00,
2013-07-02 21:24:00,70.4,69.8,30.21,South,185,0.0,0.0,98,0.00,,BKN014,0.02,VWS V14.01,2013-07-03 01:24:00,
2013-07-02 21:26:00,70.7,70.1,30.21,South,185,0.0,3.0,98,0.00,,BKN014,0.02,VWS V14.01,2013-07-03 01:26:00,
2013-07-02 21:31:00,70.4,69.8,30.22,SW,231,0.0,3.0,98,0.00,,BKN014,0.02,VWS V14.01,2013-07-03 01:31:00,
2013-07-02 21:36:00,70.4,69.8,30.21,SW,231,0.0,3.0,98,0.00,,BKN014,0.02,VWS V14.01,2013-07-03 01:36:00,
2013-07-02 21:41:00,70.4,69.8,30.21,SW,235,4.0,5.0,98,0.00,,BKN014,0.02,VWS V14.01,2013-07-03 01:41:00,
2013-07-02 21:46:00,70.6,70.0,30.21,South,190,0.0,5.0,98,0.00,,BKN014,0.02,VWS V14.01,2013-07-03 01:46:00,
2013-07-02 21:49:00,70.4,69.8,30.22,SSW,204,2.0,7.0,98,0.00,,BKN014,0.02,VWS V14.01,2013-07-03 01:49:00,
2013-07-02 21:50:00,70.4,70.1,30.22,SSW,204,1.0,2.0,99,0.00,,BKN014,0.02,VWS V14.01,2013-07-03 01:50:00,
2013-07-02 21:56:00,70.4,69.8,30.22,SSW,208,0.0,5.0,98,0.00,,BKN014,0.02,VWS V14.01,2013-07-03 01:56:00,
2013-07-02 22:01:00,70.4,69.8,30.22,SW,214,1.0,4.0,98,0.00,,BKN014,0.02,VWS V14.01,2013-07-03 02:01:00,
2013-07-02 22:06:00,70.7,70.1,30.22,SE,146,1.0,3.0,98,0.00,,-RA,0.02,VWS V14.01,2013-07-03 02:06:00,
2013-07-02 22:11:00,70.4,69.8,30.21,SSW,197,3.0,3.0,98,0.00,,-RA,0.02,VWS V14.01,2013-07-03 02:11:00,
2013-07-02 22:16:00,70.4,69.8,30.22,SSW,195,0.0,2.0,98,0.00,,-RA,0.02,VWS V14.01,2013-07-03 02:16:00,
2013-07-02 22:21:00,70.2,69.6,30.22,SSW,207,0.0,1.0,98,0.00,,-RA,0.02,VWS V14.01,2013-07-03 02:21:00,
2013-07-02 22:26:00,70.2,69.6,30.21,SSW,207,1.0,3.0,98,0.00,,-RA,0.02,VWS V14.01,2013-07-03 02:26:00,
2013-07-02 22:31:00,70.3,69.7,30.21,SSW,213,1.0,6.0,98,0.00,,-RA,0.02,VWS V14.01,2013-07-03 02:31:00,
2013-07-02 22:32:00,70.6,70.0,30.21,SSW,194,7.0,7.0,98,0.00,,-RA,0.02,VWS V14.01,2013-07-03 02:32:00,
2013-07-02 22:37:00,70.2,69.6,30.21,South,171,3.0,5.0,98,0.01,,-RA,0.03,VWS V14.01,2013-07-03 02:37:00,
2013-07-02 22:42:00,70.4,70.1,30.21,SSW,202,0.0,4.0,99,0.01,,-RA,0.03,VWS V14.01,2013-07-03 02:42:00,
2013-07-02 22:46:00,70.7,70.1,30.21,SSW,201,1.0,2.0,98,0.01,,-RA,0.03,VWS V14.01,2013-07-03 02:46:00,
2013-07-02 22:51:00,70.2,69.6,30.21,South,191,0.0,1.0,98,0.01,,-RA,0.03,VWS V14.01,2013-07-03 02:51:00,
2013-07-02 22:56:00,70.3,70.0,30.21,South,189,1.0,5.0,99,0.02,,-RA,0.04,VWS V14.01,2013-07-03 02:56:00,
2013-07-02 23:01:00,70.1,69.5,30.22,South,185,1.0,3.0,98,0.02,,-RA,0.04,VWS V14.01,2013-07-03 03:01:00,
2013-07-02 23:02:00,70.1,69.5,30.21,South,185,3.0,3.0,98,0.02,,-RA,0.04,VWS V14.01,2013-07-03 03:02:00,
2013-07-02 23:07:00,70.1,69.8,30.21,SSW,201,2.0,5.0,99,0.03,,-RA,0.05,VWS V14.01,2013-07-03 03:07:00,
2013-07-02 23:12:00,70.1,69.8,30.21,SSW,206,1.0,3.0,99,0.03,,-RA,0.05,VWS V14.01,2013-07-03 03:12:00,
2013-07-02 23:17:00,69.9,69.6,30.21,SSW,206,0.0,3.0,99,0.03,,-RA,0.05,VWS V14.01,2013-07-03 03:17:00,
2013-07-02 23:20:00,69.9,69.6,30.21,SSW,206,1.0,1.0,99,0.04,,-RA,0.06,VWS V14.01,2013-07-03 03:20:00,
2013-07-02 23:25:00,70.0,69.7,30.21,South,190,3.0,4.0,99,0.04,,-RA,0.06,VWS V14.01,2013-07-03 03:25:00,
2013-07-02 23:30:00,69.8,69.5,30.21,SSW,200,2.0,3.0,99,0.04,,-RA,0.06,VWS V14.01,2013-07-03 03:30:00,
2013-07-02 23:35:00,69.6,69.3,30.21,SSW,199,0.0,0.0,99,0.05,,-RA,0.07,VWS V14.01,2013-07-03 03:35:00,
2013-07-02 23:39:00,69.6,69.3,30.21,SSW,199,2.0,2.0,99,0.05,,-RA,0.07,VWS V14.01,2013-07-03 03:39:00,
2013-07-02 23:44:00,69.6,69.3,30.21,SSW,199,1.0,3.0,99,0.05,,-RA,0.07,VWS V14.01,2013-07-03 03:44:00,
2013-07-02 23:49:00,69.6,69.3,30.21,SSW,199,0.0,2.0,99,0.05,,-RA,0.07,VWS V14.01,2013-07-03 03:49:00,
2013-07-02 23:54:00,69.4,69.1,30.21,SSW,197,0.0,2.0,99,0.05,,-RA,0.07,VWS V14.01,2013-07-03 03:54:00,
2013-07-02 23:59:00,69.4,69.1,30.21,SSW,192,2.0,2.0,99,0.05,,-RA,0.07,VWS V14.01,2013-07-03 03:59:00,